Time;durP1;ratioP1;P1;durP2;ratioP2;P2;SDS_P1;SDS_P2;PMS_P1;PMS_P2;Temp;Humidity;BMP_temperature;BMP_pressure;BME280_temperature;BME280_humidity;BME280_pressure;Samples;Min_cycle;Max_cycle;Signal;HPM_P1;HPM_P2
2023/10/20 00:02:27;;;;;;;;;;;13.80;64.90;;;;;;4993270;28;87497;-42
2023/10/20 00:04:53;;;;;;;;;;;13.80;65.00;;;;;;4993755;28;88044;-42
2023/10/20 00:07:21;;;;;;;;;;;13.80;64.90;;;;;;4993964;28;87987;-42
2023/10/20 00:09:47;;;;;;;;;;;13.80;64.90;;;;;;4990899;28;88008;-42
2023/10/20 00:12:12;;;;;;;;;;;13.80;64.90;;;;;;4997490;28;87082;-42
2023/10/20 00:14:38;;;;;;;;;;;13.80;64.80;;;;;;4991552;28;87925;-43
2023/10/20 00:17:03;;;;;;;;;;;13.80;64.70;;;;;;4992669;28;87127;-42
2023/10/20 00:19:29;;;;;;;;;;;13.80;64.70;;;;;;4994218;28;87781;-42
2023/10/20 00:21:55;;;;;;;;;;;13.80;64.70;;;;;;4992545;28;86532;-42
2023/10/20 00:24:22;;;;;;;;;;;13.80;64.70;;;;;;4993692;28;87382;-42
2023/10/20 00:26:49;;;;;;;;;;;13.80;64.70;;;;;;4990973;28;87321;-42
2023/10/20 00:29:15;;;;;;;;;;;13.80;64.80;;;;;;4993112;28;88992;-42
2023/10/20 00:31:41;;;;;;;;;;;13.80;64.90;;;;;;4992011;28;87078;-42
2023/10/20 00:34:06;;;;;;;;;;;13.80;64.80;;;;;;4994831;28;87424;-42
2023/10/20 00:36:32;;;;;;;;;;;13.80;64.80;;;;;;4993910;28;87221;-42
2023/10/20 00:38:57;;;;;;;;;;;13.80;64.90;;;;;;4991638;28;87968;-42
2023/10/20 00:41:23;;;;;;;;;;;13.80;64.80;;;;;;4993661;28;88266;-42
2023/10/20 00:43:48;;;;;;;;;;;13.80;64.70;;;;;;4990834;28;87010;-42
2023/10/20 00:46:14;;;;;;;;;;;13.80;65.00;;;;;;4994546;28;86756;-42
2023/10/20 00:48:40;;;;;;;;;;;13.80;65.50;;;;;;4990983;28;89302;-43
2023/10/20 00:51:05;;;;;;;;;;;13.80;65.00;;;;;;4992404;28;87117;-42
2023/10/20 00:53:33;;;;;;;;;;;13.80;64.80;;;;;;4992021;28;87934;-43
2023/10/20 00:56:03;;;;;;;;;;;13.80;64.90;;;;;;4993803;28;88995;-42
2023/10/20 00:58:28;;;;;;;;;;;13.80;65.00;;;;;;4994164;28;86975;-42
2023/10/20 01:00:54;;;;;;;;;;;13.80;64.70;;;;;;4990693;28;87914;-42
2023/10/20 01:03:20;;;;;;;;;;;13.80;64.80;;;;;;4993674;28;87087;-42
2023/10/20 01:05:46;;;;;;;;;;;13.80;65.00;;;;;;4988126;28;87168;-42
2023/10/20 01:08:12;;;;;;;;;;;13.80;65.20;;;;;;4989684;28;88027;-43
2023/10/20 01:10:37;;;;;;;;;;;13.80;65.10;;;;;;4991846;28;86411;-43
2023/10/20 01:13:03;;;;;;;;;;;13.80;65.00;;;;;;4993747;28;86986;-44
2023/10/20 01:15:28;;;;;;;;;;;13.80;65.00;;;;;;4990114;28;87976;-42
2023/10/20 01:17:54;;;;;;;;;;;13.80;64.90;;;;;;4995573;28;88166;-42
2023/10/20 01:20:20;;;;;;;;;;;13.70;65.00;;;;;;4992413;28;87389;-42
2023/10/20 01:22:45;;;;;;;;;;;13.80;65.20;;;;;;4992432;28;87137;-42
2023/10/20 01:25:11;;;;;;;;;;;13.80;65.10;;;;;;4992202;28;87462;-42
2023/10/20 01:27:37;;;;;;;;;;;13.80;65.00;;;;;;4990787;28;88075;-42
2023/10/20 01:30:03;;;;;;;;;;;13.80;64.90;;;;;;4993386;28;87046;-42
2023/10/20 01:32:29;;;;;;;;;;;13.80;64.80;;;;;;4990470;28;87678;-43
2023/10/20 01:34:54;;;;;;;;;;;13.80;64.80;;;;;;4993065;28;88831;-42
2023/10/20 01:37:20;;;;;;;;;;;13.80;65.00;;;;;;4994859;28;87113;-43
2023/10/20 01:39:45;;;;;;;;;;;13.80;65.00;;;;;;4991098;28;87728;-42
2023/10/20 01:42:11;;;;;;;;;;;13.80;64.90;;;;;;4990929;28;88028;-44
2023/10/20 01:44:36;;;;;;;;;;;13.80;64.90;;;;;;4989746;28;88520;-43
2023/10/20 01:47:02;;;;;;;;;;;13.80;65.10;;;;;;4995383;28;87216;-42
2023/10/20 01:49:28;;;;;;;;;;;13.80;65.00;;;;;;4993539;28;87239;-43
2023/10/20 01:51:53;;;;;;;;;;;13.80;65.10;;;;;;4994550;28;87412;-42
2023/10/20 01:54:19;;;;;;;;;;;13.80;64.90;;;;;;4995916;28;88032;-42
2023/10/20 01:56:44;;;;;;;;;;;13.80;64.90;;;;;;4994493;28;87102;-42
2023/10/20 01:59:11;;;;;;;;;;;13.80;65.30;;;;;;4998285;28;87372;-43
2023/10/20 02:01:36;;;;;;;;;;;13.80;65.40;;;;;;4995420;28;87166;-42
2023/10/20 02:04:02;;;;;;;;;;;13.80;65.50;;;;;;4993689;28;88131;-42
2023/10/20 02:06:28;;;;;;;;;;;13.80;65.70;;;;;;4994847;28;88732;-42
2023/10/20 02:08:53;;;;;;;;;;;13.80;65.80;;;;;;4993327;28;87081;-43
2023/10/20 02:11:19;;;;;;;;;;;13.80;65.80;;;;;;4996146;28;87562;-42
2023/10/20 02:13:44;;;;;;;;;;;13.80;65.90;;;;;;4993847;28;88199;-42
2023/10/20 02:16:10;;;;;;;;;;;13.80;65.90;;;;;;4994931;28;89095;-43
2023/10/20 02:18:36;;;;;;;;;;;13.80;65.80;;;;;;4994925;28;87419;-42
2023/10/20 02:21:05;;;;;;;;;;;13.80;65.90;;;;;;4998634;28;87938;-43
2023/10/20 02:23:31;;;;;;;;;;;13.80;66.00;;;;;;4993371;28;88514;-42
2023/10/20 02:26:00;;;;;;;;;;;13.80;65.80;;;;;;4995686;28;88113;-43
2023/10/20 02:28:26;;;;;;;;;;;13.80;65.90;;;;;;4994272;28;87090;-43
2023/10/20 02:30:52;;;;;;;;;;;13.80;65.80;;;;;;4993461;28;88915;-42
2023/10/20 02:33:18;;;;;;;;;;;13.80;65.90;;;;;;4995021;28;88200;-42
2023/10/20 02:35:44;;;;;;;;;;;13.80;65.90;;;;;;4992913;28;87150;-42
2023/10/20 02:38:10;;;;;;;;;;;13.70;65.90;;;;;;4994305;28;87402;-42
2023/10/20 02:40:35;;;;;;;;;;;13.80;65.80;;;;;;4995580;28;87958;-42
2023/10/20 02:43:01;;;;;;;;;;;13.80;65.80;;;;;;4996550;28;87651;-43
2023/10/20 02:45:26;;;;;;;;;;;13.80;65.70;;;;;;4994379;28;87071;-43
2023/10/20 02:47:52;;;;;;;;;;;13.80;65.80;;;;;;4993747;28;86462;-42
2023/10/20 02:50:17;;;;;;;;;;;13.70;65.80;;;;;;4991790;28;87123;-43
2023/10/20 02:52:44;;;;;;;;;;;13.80;65.80;;;;;;4996639;28;88329;-42
2023/10/20 02:55:09;;;;;;;;;;;13.70;65.70;;;;;;4991517;28;88108;-43
2023/10/20 02:57:36;;;;;;;;;;;13.70;65.70;;;;;;4995110;28;88615;-42
2023/10/20 03:00:10;;;;;;;;;;;13.70;65.70;;;;;;4992815;28;89447;-42
2023/10/20 03:02:36;;;;;;;;;;;13.70;65.60;;;;;;4993283;28;87066;-43
2023/10/20 03:05:02;;;;;;;;;;;13.70;65.60;;;;;;4997763;28;87712;-42
2023/10/20 03:07:27;;;;;;;;;;;13.70;65.70;;;;;;4993378;28;87180;-42
2023/10/20 03:09:54;;;;;;;;;;;13.70;65.50;;;;;;4992806;28;87754;-44
2023/10/20 03:12:19;;;;;;;;;;;13.70;65.60;;;;;;4994543;28;87974;-42
2023/10/20 03:14:45;;;;;;;;;;;13.70;66.10;;;;;;4993732;28;87202;-42
2023/10/20 03:17:11;;;;;;;;;;;13.70;65.50;;;;;;4993515;28;87519;-42
2023/10/20 03:19:37;;;;;;;;;;;13.70;65.30;;;;;;4993434;28;89926;-42
2023/10/20 03:22:03;;;;;;;;;;;13.70;65.40;;;;;;4993532;28;87253;-42
2023/10/20 03:24:29;;;;;;;;;;;13.70;65.70;;;;;;4992107;28;87488;-42
2023/10/20 03:26:54;;;;;;;;;;;13.70;65.50;;;;;;4997486;28;87820;-43
2023/10/20 03:29:20;;;;;;;;;;;13.70;65.50;;;;;;4992766;28;88750;-42
2023/10/20 03:31:46;;;;;;;;;;;13.70;65.60;;;;;;4993042;28;88575;-44
2023/10/20 03:34:11;;;;;;;;;;;13.70;65.50;;;;;;4993853;28;87195;-43
2023/10/20 03:36:37;;;;;;;;;;;13.70;65.40;;;;;;4993241;28;87315;-42
2023/10/20 03:39:14;;;;;;;;;;;13.70;65.40;;;;;;4994033;28;89371;-42
2023/10/20 03:41:40;;;;;;;;;;;13.70;65.30;;;;;;4993021;28;87183;-42
2023/10/20 03:44:07;;;;;;;;;;;13.70;65.50;;;;;;4992392;28;88693;-42
2023/10/20 03:46:43;;;;;;;;;;;13.70;65.30;;;;;;4996825;28;87221;-42
2023/10/20 03:49:08;;;;;;;;;;;13.70;65.30;;;;;;4992348;28;89326;-43
2023/10/20 03:51:35;;;;;;;;;;;13.70;65.00;;;;;;4993142;28;88270;-42
2023/10/20 03:54:00;;;;;;;;;;;13.70;65.10;;;;;;4990778;28;87130;-42
2023/10/20 03:56:26;;;;;;;;;;;13.70;65.10;;;;;;4993996;28;87589;-43
2023/10/20 03:58:51;;;;;;;;;;;13.70;65.10;;;;;;4991799;28;88047;-42
2023/10/20 04:01:17;;;;;;;;;;;13.70;65.30;;;;;;4995137;28;87339;-43
2023/10/20 04:03:49;;;;;;;;;;;13.70;65.50;;;;;;4991437;28;87122;-44
2023/10/20 04:06:14;;;;;;;;;;;13.70;65.50;;;;;;4992841;28;90152;-43
2023/10/20 04:08:40;;;;;;;;;;;13.70;65.60;;;;;;4996863;28;88111;-42
2023/10/20 04:11:05;;;;;;;;;;;13.70;65.70;;;;;;4991228;28;87614;-42
2023/10/20 04:13:32;;;;;;;;;;;13.70;65.60;;;;;;4994035;28;87274;-42
2023/10/20 04:15:57;;;;;;;;;;;13.70;65.10;;;;;;4991087;28;87782;-45
2023/10/20 04:18:23;;;;;;;;;;;13.70;65.40;;;;;;4993689;28;88532;-43
2023/10/20 04:20:48;;;;;;;;;;;13.70;65.40;;;;;;4991865;28;87162;-43
2023/10/20 04:23:15;;;;;;;;;;;13.70;65.30;;;;;;4992480;28;88681;-42
2023/10/20 04:25:52;;;;;;;;;;;13.70;65.40;;;;;;4991636;28;87354;-42
2023/10/20 04:28:20;;;;;;;;;;;13.70;65.40;;;;;;4991196;28;87008;-43
2023/10/20 04:54:51;;;;;;;;;;;13.60;65.60;;;;;;4994518;28;87186;-43
2023/10/20 04:57:39;;;;;;;;;;;13.60;65.70;;;;;;4991339;28;88951;-42
2023/10/20 05:02:40;;;;;;;;;;;13.60;65.60;;;;;;4986066;28;87124;-42
2023/10/20 05:05:15;;;;;;;;;;;13.60;65.50;;;;;;4993812;28;88962;-42
2023/10/20 05:07:50;;;;;;;;;;;13.60;65.40;;;;;;4990779;28;89942;-43
2023/10/20 05:10:15;;;;;;;;;;;13.60;65.50;;;;;;4986948;28;87853;-43
2023/10/20 05:12:41;;;;;;;;;;;13.60;65.40;;;;;;4990590;28;87344;-42
2023/10/20 05:15:09;;;;;;;;;;;13.60;65.50;;;;;;4993196;28;87252;-42
2023/10/20 05:17:36;;;;;;;;;;;13.60;65.50;;;;;;4993098;28;87290;-44
2023/10/20 05:20:05;;;;;;;;;;;13.60;65.50;;;;;;4988159;28;87680;-42
2023/10/20 05:22:30;;;;;;;;;;;13.60;65.40;;;;;;4993695;28;87134;-42
2023/10/20 05:24:56;;;;;;;;;;;13.60;65.50;;;;;;4995930;28;88147;-42
2023/10/20 05:27:23;;;;;;;;;;;13.70;65.50;;;;;;4993680;28;88220;-43
2023/10/20 05:29:48;;;;;;;;;;;13.60;65.30;;;;;;4991127;28;87064;-43
2023/10/20 05:32:15;;;;;;;;;;;13.60;65.40;;;;;;4995364;28;87157;-43
2023/10/20 05:34:40;;;;;;;;;;;13.60;66.10;;;;;;4994904;28;89730;-43
2023/10/20 05:37:06;;;;;;;;;;;13.70;65.50;;;;;;4992868;28;87192;-42
2023/10/20 05:39:32;;;;;;;;;;;13.70;65.50;;;;;;4995644;28;87439;-42
2023/10/20 05:41:57;;;;;;;;;;;13.60;65.30;;;;;;4997269;28;86773;-42
2023/10/20 05:44:23;;;;;;;;;;;13.70;65.60;;;;;;4995632;28;87864;-43
2023/10/20 05:46:50;;;;;;;;;;;13.70;65.50;;;;;;4989782;28;89195;-43
2023/10/20 05:49:15;;;;;;;;;;;13.70;65.30;;;;;;4992398;28;88163;-42
2023/10/20 05:51:41;;;;;;;;;;;13.60;65.40;;;;;;4991277;28;87876;-45
2023/10/20 05:54:07;;;;;;;;;;;13.60;65.40;;;;;;4994850;28;88031;-43
2023/10/20 05:56:32;;;;;;;;;;;13.70;65.50;;;;;;4990360;28;87238;-43
2023/10/20 05:58:58;;;;;;;;;;;13.70;65.50;;;;;;4995425;28;87364;-42
2023/10/20 06:01:24;;;;;;;;;;;13.70;65.30;;;;;;4996470;28;87178;-42
2023/10/20 06:03:49;;;;;;;;;;;13.70;65.20;;;;;;4993195;28;87512;-42
2023/10/20 06:06:15;;;;;;;;;;;13.70;65.60;;;;;;4994696;28;88448;-42
2023/10/20 06:08:41;;;;;;;;;;;13.70;65.30;;;;;;4992324;28;87230;-43
2023/10/20 06:11:06;;;;;;;;;;;13.70;65.20;;;;;;4994287;28;87570;-42
2023/10/20 06:13:34;;;;;;;;;;;13.70;65.30;;;;;;4991771;28;88945;-43
2023/10/20 06:16:09;;;;;;;;;;;13.70;65.10;;;;;;4992537;28;87173;-43
2023/10/20 06:18:38;;;;;;;;;;;13.70;65.20;;;;;;4994678;28;87547;-42
2023/10/20 06:21:04;;;;;;;;;;;13.70;65.30;;;;;;4999292;28;88009;-43
2023/10/20 06:23:30;;;;;;;;;;;13.70;65.40;;;;;;4991382;28;88813;-43
2023/10/20 06:25:56;;;;;;;;;;;13.70;65.20;;;;;;4992460;28;89488;-43
2023/10/20 06:28:21;;;;;;;;;;;13.70;65.30;;;;;;4996938;28;87113;-42
2023/10/20 06:30:48;;;;;;;;;;;13.70;65.00;;;;;;4995043;28;88847;-43
2023/10/20 06:33:17;;;;;;;;;;;13.70;65.30;;;;;;4986621;28;89327;-42
2023/10/20 06:35:52;;;;;;;;;;;13.80;64.90;;;;;;4995392;28;87055;-42
2023/10/20 06:38:30;;;;;;;;;;;13.80;65.10;;;;;;4993586;27;87963;-43
2023/10/20 06:40:57;;;;;;;;;;;13.70;64.90;;;;;;4990671;28;91015;-42
2023/10/20 06:43:23;;;;;;;;;;;13.80;65.00;;;;;;4994143;28;87160;-42
2023/10/20 06:45:55;;;;;;;;;;;13.80;65.10;;;;;;4992527;28;88725;-42
2023/10/20 06:48:20;;;;;;;;;;;13.80;65.20;;;;;;4992955;28;87109;-43
2023/10/20 06:50:46;;;;;;;;;;;13.80;65.20;;;;;;4988500;28;88423;-43
2023/10/20 06:53:11;;;;;;;;;;;13.80;65.00;;;;;;4992869;28;88569;-43
2023/10/20 06:55:40;;;;;;;;;;;13.80;65.30;;;;;;4992788;28;86600;-43
2023/10/20 06:58:06;;;;;;;;;;;13.80;65.10;;;;;;4995764;28;87122;-43
2023/10/20 07:00:31;;;;;;;;;;;13.80;65.20;;;;;;4992617;28;88122;-43
2023/10/20 07:02:57;;;;;;;;;;;13.80;65.30;;;;;;4993477;28;88119;-43
2023/10/20 07:05:23;;;;;;;;;;;13.80;65.50;;;;;;4996670;28;88345;-42
2023/10/20 07:07:49;;;;;;;;;;;13.80;65.40;;;;;;4992705;28;87118;-43
2023/10/20 07:10:17;;;;;;;;;;;13.80;65.30;;;;;;4995576;28;87734;-43
2023/10/20 07:12:43;;;;;;;;;;;13.80;65.40;;;;;;4990923;28;89405;-42
2023/10/20 07:15:09;;;;;;;;;;;13.80;65.50;;;;;;4994119;28;87200;-43
2023/10/20 07:17:34;;;;;;;;;;;13.90;65.70;;;;;;4993262;28;87416;-43
2023/10/20 07:20:00;;;;;;;;;;;13.90;65.50;;;;;;4993500;28;88414;-43
2023/10/20 07:22:28;;;;;;;;;;;13.80;65.70;;;;;;4993892;28;87190;-43
2023/10/20 07:24:55;;;;;;;;;;;13.90;66.10;;;;;;4992201;28;87229;-42
2023/10/20 07:27:22;;;;;;;;;;;13.80;66.00;;;;;;4994391;28;89541;-43
2023/10/20 07:29:47;;;;;;;;;;;13.90;66.00;;;;;;4991987;28;89768;-43
2023/10/20 07:32:13;;;;;;;;;;;13.90;65.90;;;;;;4993242;28;87951;-42
2023/10/20 07:34:38;;;;;;;;;;;13.90;66.10;;;;;;4993112;28;87021;-42
2023/10/20 07:37:06;;;;;;;;;;;13.90;66.00;;;;;;4992706;28;87242;-42
2023/10/20 07:39:33;;;;;;;;;;;13.90;66.20;;;;;;4994056;28;89098;-45
2023/10/20 07:41:59;;;;;;;;;;;13.90;66.10;;;;;;4994286;28;87194;-42
2023/10/20 07:44:24;;;;;;;;;;;13.90;66.30;;;;;;4992421;28;86485;-42
2023/10/20 07:46:50;;;;;;;;;;;13.90;66.20;;;;;;4993741;28;87987;-42
2023/10/20 07:49:16;;;;;;;;;;;13.90;66.30;;;;;;4995850;28;86946;-42
2023/10/20 07:51:41;;;;;;;;;;;13.90;66.40;;;;;;4991104;28;88904;-43
2023/10/20 07:54:10;;;;;;;;;;;13.90;66.40;;;;;;4994161;28;86893;-43
2023/10/20 07:56:36;;;;;;;;;;;14.00;66.30;;;;;;4991821;28;88654;-43
2023/10/20 07:59:01;;;;;;;;;;;14.00;66.50;;;;;;4993456;28;88025;-43
2023/10/20 08:01:27;;;;;;;;;;;14.00;66.50;;;;;;4992407;28;87219;-43
2023/10/20 08:03:53;;;;;;;;;;;14.00;66.60;;;;;;4988955;28;88972;-43
2023/10/20 08:06:19;;;;;;;;;;;14.00;66.40;;;;;;4992653;28;87971;-42
2023/10/20 08:08:44;;;;;;;;;;;14.00;66.90;;;;;;4995082;28;86301;-42
2023/10/20 08:11:10;;;;;;;;;;;14.00;67.80;;;;;;4993554;28;87807;-43
2023/10/20 08:13:37;;;;;;;;;;;14.00;67.10;;;;;;4990649;28;87124;-43
2023/10/20 08:16:03;;;;;;;;;;;14.00;67.10;;;;;;4993859;28;88849;-43
2023/10/20 08:18:33;;;;;;;;;;;14.00;67.30;;;;;;4992131;28;87974;-42
2023/10/20 08:21:05;;;;;;;;;;;14.00;67.00;;;;;;4990793;28;87376;-42
2023/10/20 08:23:31;;;;;;;;;;;14.00;67.00;;;;;;4994014;28;89143;-43
2023/10/20 08:25:57;;;;;;;;;;;14.00;67.60;;;;;;4990869;28;88112;-42
2023/10/20 08:28:24;;;;;;;;;;;14.00;67.00;;;;;;4992634;28;87064;-43
2023/10/20 08:30:50;;;;;;;;;;;14.00;67.20;;;;;;4994910;28;87597;-43
2023/10/20 08:33:16;;;;;;;;;;;14.00;67.20;;;;;;4993145;28;86566;-42
2023/10/20 08:35:42;;;;;;;;;;;14.00;67.40;;;;;;4990694;28;87179;-42
2023/10/20 08:38:07;;;;;;;;;;;14.00;67.40;;;;;;4990677;28;88062;-43
2023/10/20 08:40:33;;;;;;;;;;;14.00;67.40;;;;;;4993565;28;88042;-43
2023/10/20 08:43:02;;;;;;;;;;;14.00;67.20;;;;;;4992943;28;88965;-43
2023/10/20 08:45:31;;;;;;;;;;;14.10;67.30;;;;;;4991377;28;87919;-43
2023/10/20 08:47:56;;;;;;;;;;;14.10;67.10;;;;;;4991618;28;86985;-42
2023/10/20 08:50:22;;;;;;;;;;;14.10;67.30;;;;;;4989879;28;87453;-43
2023/10/20 08:52:49;;;;;;;;;;;14.10;67.30;;;;;;4996828;28;87526;-42
2023/10/20 08:55:14;;;;;;;;;;;14.10;67.30;;;;;;4990002;28;87476;-43
2023/10/20 08:57:40;;;;;;;;;;;14.10;67.40;;;;;;4993525;28;86567;-42
2023/10/20 09:00:07;;;;;;;;;;;14.10;67.10;;;;;;4992811;28;88261;-42
2023/10/20 09:02:38;;;;;;;;;;;14.10;67.40;;;;;;4992328;28;88961;-42
2023/10/20 09:05:04;;;;;;;;;;;14.10;67.40;;;;;;4986239;28;89120;-43
2023/10/20 09:07:31;;;;;;;;;;;14.20;67.40;;;;;;4990333;28;87095;-43
2023/10/20 09:09:56;;;;;;;;;;;14.20;67.60;;;;;;4993427;28;87453;-44
2023/10/20 09:12:22;;;;;;;;;;;14.20;67.30;;;;;;4990839;28;87618;-42
2023/10/20 09:14:47;;;;;;;;;;;14.20;67.40;;;;;;4995568;28;87114;-42
2023/10/20 09:17:22;;;;;;;;;;;14.20;68.10;;;;;;4990760;28;89286;-43
2023/10/20 09:19:47;;;;;;;;;;;14.30;67.30;;;;;;4986149;28;88755;-43
2023/10/20 09:22:13;;;;;;;;;;;14.20;67.40;;;;;;4993301;28;87770;-42
2023/10/20 09:24:40;;;;;;;;;;;14.30;67.50;;;;;;4990917;28;88720;-44
2023/10/20 09:27:07;;;;;;;;;;;14.30;67.70;;;;;;4991797;28;87108;-43
2023/10/20 09:29:34;;;;;;;;;;;14.20;67.40;;;;;;4992177;28;87968;-42
2023/10/20 09:31:59;;;;;;;;;;;14.30;67.90;;;;;;4992861;28;87371;-42
2023/10/20 09:34:25;;;;;;;;;;;14.30;67.90;;;;;;4990077;28;87153;-43
2023/10/20 09:36:52;;;;;;;;;;;14.30;67.70;;;;;;4993363;28;87408;-42
2023/10/20 09:39:21;;;;;;;;;;;14.30;67.90;;;;;;4992303;28;87141;-42
2023/10/20 09:41:48;;;;;;;;;;;14.30;67.60;;;;;;4991778;28;87720;-43
2023/10/20 09:44:20;;;;;;;;;;;14.30;68.00;;;;;;4991809;28;89499;-43
2023/10/20 09:46:54;;;;;;;;;;;14.30;67.90;;;;;;4990788;28;86273;-43
2023/10/20 09:49:25;;;;;;;;;;;14.30;67.80;;;;;;4991727;28;87060;-42
2023/10/20 09:51:52;;;;;;;;;;;14.30;68.00;;;;;;4988268;28;88023;-42
2023/10/20 09:54:18;;;;;;;;;;;14.40;68.30;;;;;;4989106;28;88107;-43
2023/10/20 09:56:45;;;;;;;;;;;14.40;67.80;;;;;;4994802;28;89631;-42
2023/10/20 09:59:20;;;;;;;;;;;14.40;67.90;;;;;;4992201;28;87088;-45
2023/10/20 10:01:46;;;;;;;;;;;14.40;68.00;;;;;;4993348;28;87441;-43
2023/10/20 10:04:12;;;;;;;;;;;14.40;68.00;;;;;;4990410;28;90101;-42
2023/10/20 10:06:38;;;;;;;;;;;14.40;67.80;;;;;;4989621;28;87121;-43
2023/10/20 10:09:04;;;;;;;;;;;14.50;68.00;;;;;;4994363;28;87273;-42
2023/10/20 10:11:30;;;;;;;;;;;14.40;68.00;;;;;;4994900;28;87300;-43
2023/10/20 10:13:59;;;;;;;;;;;14.50;68.10;;;;;;4996181;28;87246;-45
2023/10/20 10:16:25;;;;;;;;;;;14.50;68.10;;;;;;4992706;28;87298;-43
2023/10/20 10:18:54;;;;;;;;;;;14.50;67.90;;;;;;4995133;28;89086;-42
2023/10/20 10:21:23;;;;;;;;;;;14.50;68.00;;;;;;4992986;28;89743;-42
2023/10/20 10:24:07;;;;;;;;;;;14.50;68.10;;;;;;4993569;28;87135;-42
2023/10/20 10:26:33;;;;;;;;;;;14.60;67.90;;;;;;4994175;28;87199;-42
2023/10/20 10:28:58;;;;;;;;;;;14.60;67.90;;;;;;4995813;28;87604;-43
2023/10/20 10:31:34;;;;;;;;;;;14.60;68.00;;;;;;4993614;28;88381;-42
2023/10/20 10:34:01;;;;;;;;;;;14.60;67.90;;;;;;4993117;28;87122;-43
2023/10/20 10:36:26;;;;;;;;;;;14.60;67.80;;;;;;4995175;28;86527;-43
2023/10/20 10:38:52;;;;;;;;;;;14.60;67.90;;;;;;4994220;28;87188;-44
2023/10/20 10:41:24;;;;;;;;;;;14.60;67.70;;;;;;4997124;28;87184;-43
2023/10/20 10:43:56;;;;;;;;;;;14.60;67.40;;;;;;4994884;28;90368;-43
2023/10/20 10:46:32;;;;;;;;;;;14.70;67.70;;;;;;4993211;28;87166;-43
2023/10/20 10:49:08;;;;;;;;;;;14.70;67.60;;;;;;4992831;28;87604;-42
2023/10/20 10:51:41;;;;;;;;;;;14.70;67.50;;;;;;4993192;28;88152;-43
2023/10/20 10:54:07;;;;;;;;;;;14.70;67.50;;;;;;4995020;28;87149;-43
2023/10/20 10:56:34;;;;;;;;;;;14.70;67.40;;;;;;4992398;28;88745;-43
2023/10/20 10:59:00;;;;;;;;;;;14.80;67.50;;;;;;4995444;28;87354;-43
2023/10/20 11:01:25;;;;;;;;;;;14.80;67.40;;;;;;4994054;28;86453;-45
2023/10/20 11:03:51;;;;;;;;;;;14.80;67.40;;;;;;4995455;28;87309;-43
2023/10/20 11:06:17;;;;;;;;;;;14.80;67.30;;;;;;4991401;28;87166;-42
2023/10/20 11:08:44;;;;;;;;;;;14.80;67.20;;;;;;4993617;28;88030;-44
2023/10/20 11:11:10;;;;;;;;;;;14.90;67.30;;;;;;4992029;28;89528;-43
2023/10/20 11:13:35;;;;;;;;;;;14.90;67.30;;;;;;4995792;28;87106;-42
2023/10/20 11:16:03;;;;;;;;;;;14.90;67.20;;;;;;4993412;28;89399;-44
2023/10/20 11:18:29;;;;;;;;;;;14.90;67.20;;;;;;4991988;28;87963;-43
2023/10/20 11:20:56;;;;;;;;;;;14.90;67.10;;;;;;4992095;28;87133;-43
2023/10/20 11:23:28;;;;;;;;;;;15.00;67.00;;;;;;4992918;28;88909;-43
2023/10/20 11:25:53;;;;;;;;;;;15.00;67.20;;;;;;4999534;28;87411;-43
2023/10/20 11:28:19;;;;;;;;;;;15.00;67.00;;;;;;4988231;28;87179;-43
2023/10/20 11:30:45;;;;;;;;;;;15.00;67.70;;;;;;4989964;28;87336;-43
2023/10/20 11:33:11;;;;;;;;;;;15.00;66.90;;;;;;4993480;28;88935;-42
2023/10/20 11:35:37;;;;;;;;;;;15.00;67.00;;;;;;4993118;28;89766;-43
2023/10/20 11:38:03;;;;;;;;;;;15.10;67.00;;;;;;4990951;28;88311;-43
2023/10/20 11:40:28;;;;;;;;;;;15.10;66.90;;;;;;4991722;28;87254;-43
2023/10/20 11:42:55;;;;;;;;;;;15.10;66.90;;;;;;4991637;28;87400;-43
2023/10/20 11:45:21;;;;;;;;;;;15.10;67.00;;;;;;4996668;28;87326;-43
2023/10/20 11:47:47;;;;;;;;;;;15.10;67.00;;;;;;4991900;28;87641;-44
2023/10/20 11:50:15;;;;;;;;;;;15.10;66.90;;;;;;4989343;28;87312;-44
2023/10/20 11:52:41;;;;;;;;;;;15.20;66.90;;;;;;4992370;28;87472;-43
2023/10/20 11:55:10;;;;;;;;;;;15.20;66.90;;;;;;4996259;28;87163;-43
2023/10/20 11:57:36;;;;;;;;;;;15.20;66.90;;;;;;4985314;28;89272;-43
2023/10/20 12:00:07;;;;;;;;;;;15.20;66.80;;;;;;4992060;28;87059;-42
2023/10/20 12:02:36;;;;;;;;;;;15.30;66.90;;;;;;4994895;28;88631;-43
2023/10/20 12:05:02;;;;;;;;;;;15.20;66.90;;;;;;4992621;28;87914;-43
2023/10/20 12:07:27;;;;;;;;;;;15.30;66.90;;;;;;4991465;28;87290;-43
2023/10/20 12:09:53;;;;;;;;;;;15.30;66.80;;;;;;4991090;28;87657;-42
2023/10/20 12:12:19;;;;;;;;;;;15.30;66.80;;;;;;4995916;28;87365;-44
2023/10/20 12:14:45;;;;;;;;;;;15.30;66.90;;;;;;4990706;28;89120;-43
2023/10/20 12:17:10;;;;;;;;;;;15.30;66.90;;;;;;4990499;28;88179;-43
2023/10/20 12:19:36;;;;;;;;;;;15.40;66.80;;;;;;4993409;28;87324;-43
2023/10/20 12:22:02;;;;;;;;;;;15.40;66.80;;;;;;4990124;28;88895;-43
2023/10/20 12:24:27;;;;;;;;;;;15.40;66.70;;;;;;4987013;28;88099;-43
2023/10/20 12:26:53;;;;;;;;;;;15.40;66.80;;;;;;4991805;28;88849;-43
2023/10/20 12:29:22;;;;;;;;;;;15.50;66.80;;;;;;4994097;28;87129;-43
2023/10/20 12:31:48;;;;;;;;;;;15.50;66.80;;;;;;4990302;28;87195;-43
2023/10/20 12:34:13;;;;;;;;;;;15.40;66.70;;;;;;4991045;28;87392;-43
2023/10/20 12:36:41;;;;;;;;;;;15.50;66.70;;;;;;4989581;28;89949;-43
2023/10/20 12:39:06;;;;;;;;;;;15.50;66.80;;;;;;4994630;28;86382;-43
2023/10/20 12:41:32;;;;;;;;;;;15.50;66.60;;;;;;4987157;28;87180;-43
2023/10/20 12:43:58;;;;;;;;;;;15.50;66.70;;;;;;4989949;28;87987;-43
2023/10/20 12:46:24;;;;;;;;;;;15.50;66.80;;;;;;4989933;28;88104;-42
2023/10/20 12:48:50;;;;;;;;;;;15.50;66.80;;;;;;4995236;28;89245;-42
2023/10/20 12:51:16;;;;;;;;;;;15.60;66.80;;;;;;4991798;28;89021;-43
2023/10/20 12:53:41;;;;;;;;;;;15.60;66.70;;;;;;4988089;28;88430;-44
2023/10/20 12:56:07;;;;;;;;;;;15.60;66.70;;;;;;4993478;28;89290;-43
2023/10/20 12:58:33;;;;;;;;;;;15.60;66.70;;;;;;4992904;28;87203;-43
2023/10/20 13:00:58;;;;;;;;;;;15.60;66.70;;;;;;4990311;28;89048;-43
2023/10/20 13:03:26;;;;;;;;;;;15.70;66.70;;;;;;4990638;28;88460;-43
2023/10/20 13:05:52;;;;;;;;;;;15.70;66.70;;;;;;4991941;28;87416;-43
2023/10/20 13:08:18;;;;;;;;;;;15.70;66.60;;;;;;4992969;28;87405;-44
2023/10/20 13:10:46;;;;;;;;;;;15.70;66.60;;;;;;4988409;28;90292;-43
2023/10/20 13:13:12;;;;;;;;;;;15.70;66.60;;;;;;4994120;28;87251;-43
2023/10/20 13:15:37;;;;;;;;;;;15.70;66.50;;;;;;4990685;28;88270;-43
2023/10/20 13:18:04;;;;;;;;;;;15.80;66.60;;;;;;4989665;28;88340;-43
2023/10/20 13:20:30;;;;;;;;;;;15.80;66.50;;;;;;4989253;28;88882;-44
2023/10/20 13:22:55;;;;;;;;;;;15.80;66.40;;;;;;4989647;28;87911;-43
2023/10/20 13:25:22;;;;;;;;;;;15.80;66.40;;;;;;4992642;28;87236;-43
2023/10/20 13:27:48;;;;;;;;;;;15.90;66.50;;;;;;4988046;28;87373;-43
2023/10/20 13:30:14;;;;;;;;;;;15.80;66.40;;;;;;4987605;28;87988;-43
2023/10/20 13:32:39;;;;;;;;;;;15.90;66.50;;;;;;4991209;28;87428;-43
2023/10/20 13:35:05;;;;;;;;;;;15.90;66.60;;;;;;4993976;28;88065;-43
2023/10/20 13:37:32;;;;;;;;;;;15.90;66.50;;;;;;4991084;28;87171;-43
2023/10/20 13:39:57;;;;;;;;;;;15.90;66.60;;;;;;4988431;28;87449;-43
2023/10/20 13:42:23;;;;;;;;;;;15.90;66.60;;;;;;4994558;28;87756;-43
2023/10/20 13:44:48;;;;;;;;;;;16.00;66.60;;;;;;4994835;28;87180;-44
2023/10/20 13:47:14;;;;;;;;;;;16.00;66.50;;;;;;4989722;28;87447;-44
2023/10/20 13:49:40;;;;;;;;;;;16.00;66.50;;;;;;4994227;28;89609;-42
2023/10/20 13:52:05;;;;;;;;;;;16.00;66.40;;;;;;4991155;28;86439;-45
2023/10/20 13:54:32;;;;;;;;;;;16.00;66.40;;;;;;4994723;28;87211;-44
2023/10/20 13:56:58;;;;;;;;;;;16.00;66.50;;;;;;4994696;28;89509;-44
2023/10/20 13:59:24;;;;;;;;;;;16.00;66.50;;;;;;4993861;28;89905;-43
2023/10/20 14:01:50;;;;;;;;;;;16.10;66.50;;;;;;4992550;28;89615;-43
2023/10/20 14:04:18;;;;;;;;;;;16.10;66.40;;;;;;4997060;28;87128;-43
2023/10/20 14:06:44;;;;;;;;;;;16.10;66.30;;;;;;4993587;28;88947;-43
2023/10/20 14:09:09;;;;;;;;;;;16.10;66.30;;;;;;4996572;28;87752;-43
2023/10/20 14:11:35;;;;;;;;;;;16.20;66.50;;;;;;4992792;28;87843;-43
2023/10/20 14:14:01;;;;;;;;;;;16.10;66.30;;;;;;4998344;28;87501;-43
2023/10/20 14:16:26;;;;;;;;;;;16.20;66.30;;;;;;4993325;28;87012;-43
2023/10/20 14:18:52;;;;;;;;;;;16.20;66.20;;;;;;4993420;28;87820;-44
2023/10/20 14:21:17;;;;;;;;;;;16.20;66.30;;;;;;4995484;28;89278;-44
2023/10/20 14:23:43;;;;;;;;;;;16.20;66.30;;;;;;4994604;28;88047;-43
2023/10/20 14:26:09;;;;;;;;;;;16.20;66.20;;;;;;4990962;28;88259;-43
2023/10/20 14:28:34;;;;;;;;;;;16.20;66.20;;;;;;4993005;28;88019;-43
2023/10/20 14:31:00;;;;;;;;;;;16.30;66.10;;;;;;4995326;28;87270;-44
2023/10/20 14:33:25;;;;;;;;;;;16.30;66.10;;;;;;4995668;28;87955;-43
2023/10/20 14:35:53;;;;;;;;;;;16.30;66.10;;;;;;4990616;28;88260;-42
2023/10/20 14:38:18;;;;;;;;;;;16.30;66.00;;;;;;4995531;28;87377;-43
2023/10/20 14:40:44;;;;;;;;;;;16.30;65.90;;;;;;4997702;28;86834;-43